< < Back
Terminal Aerodrome Forecast


Current Version              Previous Versions:   1  2  3  4  5  6  7  8  9  

Terminal Aerodrome Forecast

873
FTUS42 KCAE 231700
TAFAGS
TAF
KAGS 231739Z 2318/2418 26006KT P6SM SCT040 BKN090
     FM240100 VRB03KT P6SM SCT035 BKN120
     FM240900 VRB03KT 4SM BR SCT010 BKN035
     FM241300 26010KT P6SM SCT040 SCT250=

Latest METAR

607
SAUS70 KWBC 231800 RRN
MTRAGS
METAR KAGS 231753Z 13004KT 10SM SCT041 SCT060 BKN080 31/22 A3004 RMK AO2
SLP170 60000 T03110222 10317 20239 58015


USA.gov is the U.S. government's official web portal to all federal, state and local government web resources and services.